createdAt,value
2018-12-01T00:00:16.497Z,73.20
2018-12-01T00:00:47.614Z,73.79
2018-12-01T00:01:18.729Z,73.42
2018-12-01T00:01:50.266Z,73.12
2018-12-01T00:02:21.378Z,72.76
2018-12-01T00:02:52.497Z,73.16
2018-12-01T00:03:23.652Z,72.91
2018-12-01T00:03:54.800Z,73.08
2018-12-01T00:04:25.928Z,72.62
2018-12-01T00:04:57.047Z,72.79
2018-12-01T00:05:28.171Z,73.47
2018-12-01T00:05:59.292Z,73.95
2018-12-01T00:06:30.412Z,73.09
2018-12-01T00:07:01.539Z,73.84
2018-12-01T00:07:32.667Z,73.50
2018-12-01T00:08:03.806Z,73.48
2018-12-01T00:08:34.957Z,73.64
2018-12-01T00:09:06.060Z,73.80
2018-12-01T00:09:37.171Z,74.96
2018-12-01T00:10:08.290Z,73.85
2018-12-01T00:10:39.457Z,73.68
2018-12-01T00:11:10.582Z,73.41
2018-12-01T00:11:41.708Z,73.67
2018-12-01T00:12:12.817Z,75.00
2018-12-01T00:12:43.949Z,75.04
2018-12-01T00:13:15.070Z,73.49
2018-12-01T00:13:46.234Z,73.57
2018-12-01T00:14:17.361Z,72.85
2018-12-01T00:14:48.513Z,72.23
2018-12-01T00:15:19.627Z,72.47
2018-12-01T00:15:50.747Z,72.99
2018-12-01T00:16:21.860Z,72.25
2018-12-01T00:16:52.986Z,72.99
2018-12-01T00:17:24.105Z,72.64
2018-12-01T00:17:55.214Z,73.12
2018-12-01T00:18:26.327Z,73.94
2018-12-01T00:18:57.481Z,73.43
2018-12-01T00:19:28.604Z,73.16
2018-12-01T00:19:59.721Z,72.60
2018-12-01T00:20:30.843Z,73.18
2018-12-01T00:21:01.958Z,73.49
2018-12-01T00:21:33.125Z,73.43
2018-12-01T00:22:04.259Z,73.32
2018-12-01T00:22:35.370Z,73.35
2018-12-01T00:23:06.495Z,73.65
2018-12-01T00:23:37.617Z,73.79
2018-12-01T00:24:08.728Z,73.84
2018-12-01T00:24:39.859Z,74.12
2018-12-01T00:25:10.970Z,73.90
2018-12-01T00:25:42.097Z,74.27
2018-12-01T00:26:13.221Z,74.48
2018-12-01T00:26:44.363Z,74.72
2018-12-01T00:27:15.476Z,75.12
2018-12-01T00:27:46.592Z,75.05
2018-12-01T00:28:17.705Z,74.35
2018-12-01T00:28:48.821Z,75.09
2018-12-01T00:29:19.972Z,74.39
2018-12-01T00:29:51.094Z,75.17
2018-12-01T00:30:22.213Z,75.28
2018-12-01T00:30:53.332Z,75.38
2018-12-01T00:31:24.454Z,76.60
2018-12-01T00:31:55.617Z,75.52
2018-12-01T00:32:26.757Z,74.92
2018-12-01T00:32:57.880Z,74.08
2018-12-01T00:33:29.033Z,75.29
2018-12-01T00:34:00.146Z,74.94
2018-12-01T00:34:31.260Z,74.21
2018-12-01T00:35:02.370Z,73.97
2018-12-01T00:35:33.486Z,73.92
2018-12-01T00:36:04.605Z,73.97
2018-12-01T00:36:35.715Z,74.24
2018-12-01T00:37:06.866Z,74.83
2018-12-01T00:37:37.977Z,74.73
2018-12-01T00:38:09.133Z,74.43
2018-12-01T00:38:40.256Z,73.81
2018-12-01T00:39:11.379Z,74.23
2018-12-01T00:39:42.500Z,73.62
2018-12-01T00:40:13.626Z,73.27
2018-12-01T00:40:44.737Z,74.17
2018-12-01T00:41:15.848Z,73.51
2018-12-01T00:41:46.965Z,74.30
2018-12-01T00:42:18.114Z,74.15
2018-12-01T00:42:49.232Z,74.52
2018-12-01T00:43:20.355Z,75.73
2018-12-01T00:43:51.465Z,76.59
2018-12-01T00:44:22.571Z,75.95
2018-12-01T00:44:53.694Z,75.29
2018-12-01T00:45:24.823Z,74.27
2018-12-01T00:45:55.928Z,74.36
2018-12-01T00:46:27.042Z,73.43
2018-12-01T00:46:58.165Z,73.48
2018-12-01T00:47:29.311Z,73.98
2018-12-01T00:48:00.437Z,73.37
2018-12-01T00:48:31.556Z,73.90
2018-12-01T00:49:02.711Z,74.48
2018-12-01T00:49:33.831Z,73.91
2018-12-01T00:50:04.978Z,74.74
2018-12-01T00:50:36.098Z,74.41
2018-12-01T00:51:07.258Z,73.67
2018-12-01T00:51:38.364Z,73.87
2018-12-01T00:52:09.528Z,73.30
2018-12-01T00:52:40.645Z,73.07
2018-12-01T00:53:11.749Z,73.38
2018-12-01T00:53:42.893Z,73.34
2018-12-01T00:54:14.000Z,73.31
2018-12-01T00:54:45.120Z,73.31
2018-12-01T00:55:16.269Z,73.83
2018-12-01T00:55:47.386Z,74.37
2018-12-01T00:56:18.502Z,74.39
2018-12-01T00:56:49.631Z,74.37
2018-12-01T00:57:20.753Z,74.40
2018-12-01T00:57:51.889Z,74.19
2018-12-01T00:58:22.999Z,74.23
2018-12-01T00:58:54.160Z,74.27
2018-12-01T00:59:25.274Z,74.67
2018-12-01T00:59:56.383Z,74.68
2018-12-01T01:00:27.519Z,74.39
2018-12-01T01:00:58.646Z,74.00
2018-12-01T01:01:29.773Z,74.73
2018-12-01T01:02:00.893Z,74.12
2018-12-01T01:02:32.017Z,74.13
2018-12-01T01:03:03.168Z,74.45
2018-12-01T01:03:34.287Z,74.70
2018-12-01T01:04:05.403Z,75.15
2018-12-01T01:04:36.520Z,75.29
2018-12-01T01:05:07.634Z,75.52
2018-12-01T01:05:38.749Z,75.31
2018-12-01T01:06:09.864Z,74.62
2018-12-01T01:06:41.012Z,74.96
2018-12-01T01:07:12.159Z,75.37
2018-12-01T01:07:43.276Z,75.70
2018-12-01T01:08:14.391Z,75.35
2018-12-01T01:08:45.515Z,75.69
2018-12-01T01:09:16.632Z,76.05
2018-12-01T01:09:47.787Z,76.58
2018-12-01T01:10:18.908Z,75.79
2018-12-01T01:10:50.037Z,76.31
2018-12-01T01:11:21.164Z,76.08
2018-12-01T01:11:52.277Z,76.28
2018-12-01T01:12:23.394Z,75.89
2018-12-01T01:12:54.505Z,75.70
2018-12-01T01:13:25.621Z,75.94
2018-12-01T01:13:56.765Z,75.90
2018-12-01T01:14:27.888Z,76.82
2018-12-01T01:14:59.044Z,76.62
2018-12-01T01:15:30.161Z,76.41
2018-12-01T01:16:01.270Z,76.63
2018-12-01T01:16:37.670Z,76.43
2018-12-01T01:17:08.848Z,76.21
2018-12-01T01:17:39.970Z,76.71
2018-12-01T01:18:11.082Z,76.76
2018-12-01T01:18:42.233Z,77.22
2018-12-01T01:19:13.392Z,76.57
2018-12-01T01:19:44.513Z,77.17
2018-12-01T01:20:15.616Z,76.58
2018-12-01T01:20:46.735Z,77.11
2018-12-01T01:21:17.856Z,76.80
2018-12-01T01:21:48.963Z,77.55
2018-12-01T01:22:20.101Z,77.28
2018-12-01T01:22:51.265Z,77.20
2018-12-01T01:23:22.381Z,77.76
2018-12-01T01:23:53.496Z,77.66
2018-12-01T01:24:24.608Z,77.21
2018-12-01T01:24:55.720Z,77.23
2018-12-01T01:25:26.829Z,76.91
2018-12-01T01:25:57.962Z,77.20
2018-12-01T01:26:29.071Z,77.69
2018-12-01T01:27:00.172Z,77.29
2018-12-01T01:27:31.294Z,77.04
2018-12-01T01:28:02.437Z,78.06
2018-12-01T01:28:33.549Z,77.09
2018-12-01T01:29:04.663Z,77.89
2018-12-01T01:29:35.775Z,77.24
2018-12-01T01:30:06.931Z,77.93
2018-12-01T01:30:38.049Z,77.47
2018-12-01T01:31:09.207Z,77.58
2018-12-01T01:31:40.303Z,77.94
2018-12-01T01:32:11.418Z,78.14
2018-12-01T01:32:42.528Z,77.81
2018-12-01T01:33:13.664Z,78.59
2018-12-01T01:33:44.782Z,77.88
2018-12-01T01:34:15.892Z,78.77
2018-12-01T01:34:47.054Z,78.66
2018-12-01T01:35:18.169Z,78.49
2018-12-01T01:35:49.283Z,78.00
2018-12-01T01:36:20.391Z,77.40
2018-12-01T01:36:51.504Z,77.69
2018-12-01T01:37:22.622Z,77.31
2018-12-01T01:37:53.789Z,77.32
2018-12-01T01:38:24.908Z,76.92
2018-12-01T01:38:56.016Z,77.38
2018-12-01T01:39:27.127Z,77.00
2018-12-01T01:39:58.246Z,76.63
2018-12-01T01:40:29.377Z,76.51
2018-12-01T01:41:00.506Z,77.34
2018-12-01T01:41:31.618Z,77.45
2018-12-01T01:42:02.740Z,77.59
2018-12-01T01:42:33.852Z,77.33
2018-12-01T01:43:05.003Z,77.55
2018-12-01T01:43:36.148Z,77.69
2018-12-01T01:44:07.294Z,77.70
2018-12-01T01:44:38.415Z,77.19
2018-12-01T01:45:09.531Z,77.34
2018-12-01T01:45:40.651Z,77.10
2018-12-01T01:46:11.784Z,77.81
2018-12-01T01:46:42.896Z,77.12
2018-12-01T01:47:14.019Z,77.28
2018-12-01T01:47:45.151Z,76.67
2018-12-01T01:48:16.302Z,76.53
2018-12-01T01:48:47.412Z,77.36
2018-12-01T01:49:18.525Z,76.92
2018-12-01T01:49:49.671Z,76.44
2018-12-01T01:50:20.797Z,76.51
2018-12-01T01:50:51.927Z,76.77
2018-12-01T01:51:23.037Z,76.13
2018-12-01T01:51:54.161Z,76.74
2018-12-01T01:52:25.292Z,77.12
2018-12-01T01:52:56.406Z,77.58
2018-12-01T01:53:27.517Z,77.42
2018-12-01T01:53:58.683Z,77.50
2018-12-01T01:54:29.789Z,77.89
2018-12-01T01:55:00.968Z,77.55
2018-12-01T01:55:32.100Z,77.41
2018-12-01T01:56:03.230Z,78.50
2018-12-01T01:56:34.353Z,77.44
2018-12-01T01:57:05.469Z,78.12
2018-12-01T01:57:36.593Z,78.49
2018-12-01T01:58:07.751Z,79.79
2018-12-01T01:58:38.893Z,79.34
2018-12-01T01:59:10.034Z,78.09
2018-12-01T01:59:41.158Z,76.45
2018-12-01T02:00:12.316Z,75.22
2018-12-01T02:00:43.424Z,74.89
2018-12-01T02:01:14.527Z,75.16
2018-12-01T02:01:45.654Z,74.87
2018-12-01T02:02:16.774Z,74.16
2018-12-01T02:02:47.894Z,73.80
2018-12-01T02:03:19.017Z,73.03
2018-12-01T02:03:50.138Z,73.21
2018-12-01T02:04:21.252Z,72.96
2018-12-01T02:04:52.414Z,73.15
2018-12-01T02:05:23.536Z,72.34
2018-12-01T02:05:54.657Z,72.20
2018-12-01T02:06:25.765Z,71.99
2018-12-01T02:06:56.878Z,72.40
2018-12-01T02:07:27.988Z,72.72
2018-12-01T02:07:59.117Z,71.96
2018-12-01T02:08:30.240Z,71.88
2018-12-01T02:09:01.375Z,72.07
2018-12-01T02:09:32.506Z,73.98
2018-12-01T02:10:03.670Z,73.42
2018-12-01T02:10:34.783Z,74.30
2018-12-01T02:11:05.900Z,74.68
2018-12-01T02:11:37.025Z,74.33
2018-12-01T02:12:08.151Z,73.82
2018-12-01T02:12:39.265Z,73.64
2018-12-01T02:13:10.389Z,73.19
2018-12-01T02:13:41.512Z,72.50
2018-12-01T02:14:12.646Z,71.16
2018-12-01T02:14:43.797Z,71.06
2018-12-01T02:15:14.914Z,70.90
2018-12-01T02:15:46.059Z,69.74
2018-12-01T02:16:17.191Z,68.69
2018-12-01T02:16:48.305Z,67.59
2018-12-01T02:17:19.425Z,66.36
2018-12-01T02:17:50.542Z,65.23
2018-12-01T02:18:21.691Z,64.94
2018-12-01T02:18:52.849Z,65.17
2018-12-01T02:19:23.997Z,65.02
2018-12-01T02:19:55.126Z,64.47
2018-12-01T02:20:26.289Z,64.71
2018-12-01T02:20:57.409Z,65.14
2018-12-01T02:21:28.528Z,65.24
2018-12-01T02:21:59.647Z,64.95
2018-12-01T02:22:30.778Z,64.67
2018-12-01T02:23:01.888Z,65.05
2018-12-01T02:23:33.011Z,64.87
2018-12-01T02:24:04.168Z,65.08
2018-12-01T02:24:35.280Z,65.48
2018-12-01T02:25:06.433Z,65.04
2018-12-01T02:25:37.558Z,66.47
2018-12-01T02:26:08.672Z,66.61
2018-12-01T02:26:39.842Z,66.64
2018-12-01T02:27:10.986Z,66.60
2018-12-01T02:27:42.124Z,67.79
2018-12-01T02:28:13.244Z,68.70
2018-12-01T02:28:44.382Z,67.83
2018-12-01T02:29:15.538Z,66.81
2018-12-01T02:29:46.645Z,66.34
2018-12-01T02:30:17.787Z,66.30
2018-12-01T02:30:48.909Z,66.17
2018-12-01T02:31:20.039Z,65.74
2018-12-01T02:31:51.152Z,66.40
2018-12-01T02:32:22.270Z,68.16
2018-12-01T02:32:53.396Z,66.81
2018-12-01T02:33:24.521Z,66.38
2018-12-01T02:33:56.692Z,66.09
2018-12-01T02:34:27.812Z,66.10
2018-12-01T02:34:58.933Z,66.46
2018-12-01T02:35:30.056Z,65.87
2018-12-01T02:36:01.179Z,65.79
2018-12-01T02:36:32.304Z,66.23
2018-12-01T02:37:03.465Z,66.37
2018-12-01T02:37:34.606Z,66.22
2018-12-01T02:38:05.798Z,66.55
2018-12-01T02:38:36.945Z,66.94
2018-12-01T02:39:08.108Z,67.70
2018-12-01T02:39:39.331Z,67.36
2018-12-01T02:40:10.459Z,67.78
2018-12-01T02:40:41.602Z,67.64
2018-12-01T02:41:12.753Z,67.87
2018-12-01T02:41:43.899Z,67.30
2018-12-01T02:42:15.030Z,68.24
2018-12-01T02:42:46.207Z,68.32
2018-12-01T02:43:17.334Z,68.94
2018-12-01T02:43:48.440Z,71.27
2018-12-01T02:44:19.592Z,69.99
2018-12-01T02:44:50.740Z,70.07
2018-12-01T02:45:21.861Z,67.74
2018-12-01T02:45:53.006Z,67.61
2018-12-01T02:46:24.137Z,67.27
2018-12-01T02:46:55.255Z,67.01
2018-12-01T02:47:26.434Z,66.34
2018-12-01T02:47:57.559Z,65.98
2018-12-01T02:48:28.672Z,66.66
2018-12-01T02:48:59.779Z,67.16
2018-12-01T02:49:30.956Z,66.03
2018-12-01T02:50:02.084Z,64.99
2018-12-01T02:50:33.222Z,65.74
2018-12-01T02:51:04.345Z,65.25
2018-12-01T02:51:35.458Z,65.99
2018-12-01T02:52:07.792Z,66.87
2018-12-01T02:52:38.929Z,66.90
2018-12-01T02:53:10.089Z,68.31
2018-12-01T02:53:41.203Z,66.17
2018-12-01T02:54:12.330Z,64.33
2018-12-01T02:54:43.470Z,63.76
2018-12-01T02:55:14.593Z,63.93
2018-12-01T02:55:45.753Z,63.88
2018-12-01T02:56:16.872Z,63.84
2018-12-01T02:56:47.996Z,64.71
2018-12-01T02:57:19.164Z,64.35
2018-12-01T02:57:50.557Z,64.81
2018-12-01T02:58:21.681Z,65.83
2018-12-01T02:58:52.833Z,68.25
2018-12-01T02:59:23.997Z,66.87
2018-12-01T02:59:55.122Z,66.41
2018-12-01T03:00:26.236Z,67.66
2018-12-01T03:00:57.421Z,68.70
2018-12-01T03:01:28.555Z,66.39
2018-12-01T03:01:59.685Z,64.10
2018-12-01T03:02:30.804Z,62.92
2018-12-01T03:03:01.916Z,63.33
2018-12-01T03:03:33.057Z,64.20
2018-12-01T03:04:04.185Z,64.22
2018-12-01T03:04:35.421Z,62.23
2018-12-01T03:05:06.551Z,62.45
2018-12-01T03:05:37.684Z,63.37
2018-12-01T03:06:08.793Z,63.17
2018-12-01T03:06:39.915Z,62.76
2018-12-01T03:07:11.029Z,64.30
2018-12-01T03:07:42.147Z,64.16
2018-12-01T03:08:13.281Z,62.85
2018-12-01T03:08:44.406Z,62.55
2018-12-01T03:09:15.525Z,62.92
2018-12-01T03:09:46.694Z,63.41
2018-12-01T03:10:17.848Z,64.63
2018-12-01T03:10:48.980Z,63.87
2018-12-01T03:11:20.125Z,63.64
2018-12-01T03:11:51.280Z,64.17
2018-12-01T03:12:22.392Z,64.47
2018-12-01T03:12:53.533Z,64.45
2018-12-01T03:13:24.662Z,65.51
2018-12-01T03:13:55.792Z,65.54
2018-12-01T03:14:26.912Z,67.19
2018-12-01T03:14:58.074Z,66.82
2018-12-01T03:15:29.199Z,64.90
2018-12-01T03:16:00.340Z,63.18
2018-12-01T03:16:31.464Z,62.52
2018-12-01T03:17:02.627Z,62.41
2018-12-01T03:17:33.792Z,63.00
2018-12-01T03:18:04.913Z,62.54
2018-12-01T03:18:36.039Z,62.52
2018-12-01T03:19:07.211Z,62.67
2018-12-01T03:19:38.325Z,62.68
2018-12-01T03:20:09.453Z,62.97
2018-12-01T03:20:40.604Z,63.04
2018-12-01T03:21:11.729Z,63.53
2018-12-01T03:21:42.844Z,63.46
2018-12-01T03:22:13.972Z,63.35
2018-12-01T03:22:45.119Z,63.74
2018-12-01T03:23:16.254Z,63.88
2018-12-01T03:23:48.020Z,63.89
2018-12-01T03:24:19.157Z,64.04
2018-12-01T03:24:50.293Z,64.41
2018-12-01T03:25:21.473Z,64.53
2018-12-01T03:25:52.585Z,65.05
2018-12-01T03:26:23.713Z,64.71
2018-12-01T03:26:54.824Z,64.99
2018-12-01T03:27:25.951Z,65.86
2018-12-01T03:27:57.315Z,66.96
2018-12-01T03:28:28.451Z,67.77
2018-12-01T03:28:59.606Z,68.38
2018-12-01T03:29:30.761Z,66.51
2018-12-01T03:30:01.893Z,65.20
2018-12-01T03:30:33.072Z,64.66
2018-12-01T03:31:04.198Z,65.50
2018-12-01T03:31:35.338Z,66.50
2018-12-01T03:32:06.488Z,65.00
2018-12-01T03:32:37.631Z,64.24
2018-12-01T03:33:08.803Z,63.83
2018-12-01T03:33:39.927Z,64.17
2018-12-01T03:34:11.060Z,63.39
2018-12-01T03:34:42.176Z,63.05
2018-12-01T03:35:13.291Z,63.36
2018-12-01T03:35:44.424Z,63.56
2018-12-01T03:36:15.564Z,63.36
2018-12-01T03:36:46.742Z,64.13
2018-12-01T03:37:17.875Z,63.95
2018-12-01T03:37:49.115Z,64.90
2018-12-01T03:38:20.236Z,64.93
2018-12-01T03:38:51.352Z,64.63
2018-12-01T03:39:22.506Z,63.80
2018-12-01T03:39:53.657Z,63.35
2018-12-01T03:40:24.773Z,63.92
2018-12-01T03:40:55.908Z,64.20
2018-12-01T03:41:27.034Z,64.66
2018-12-01T03:41:58.146Z,64.32
2018-12-01T03:42:29.268Z,64.97
2018-12-01T03:43:00.425Z,63.95
2018-12-01T03:43:31.571Z,64.14
2018-12-01T03:44:02.685Z,65.17
2018-12-01T03:44:33.816Z,65.89
2018-12-01T03:45:04.963Z,64.83
2018-12-01T03:45:36.146Z,65.41
2018-12-01T03:46:07.321Z,65.94
2018-12-01T03:46:38.439Z,65.24
2018-12-01T03:47:09.571Z,64.57
2018-12-01T03:47:40.696Z,64.33
2018-12-01T03:48:11.823Z,64.83
2018-12-01T03:48:42.940Z,66.19
2018-12-01T03:49:14.066Z,67.30
2018-12-01T03:49:45.192Z,66.70
2018-12-01T03:50:16.378Z,64.23
2018-12-01T03:50:47.554Z,62.98
2018-12-01T03:51:18.690Z,62.18
2018-12-01T03:51:49.812Z,61.81
2018-12-01T03:52:20.934Z,61.77
2018-12-01T03:52:52.060Z,63.02
2018-12-01T03:53:23.180Z,63.00
2018-12-01T03:53:54.336Z,63.10
2018-12-01T03:54:25.459Z,63.26
2018-12-01T03:54:56.589Z,63.08
2018-12-01T03:55:27.722Z,64.61
2018-12-01T03:55:58.861Z,63.95
2018-12-01T03:56:29.969Z,63.47
2018-12-01T03:57:01.081Z,63.57
2018-12-01T03:57:32.242Z,63.55
2018-12-01T03:58:03.396Z,62.94
2018-12-01T03:58:34.527Z,61.92
2018-12-01T03:59:05.650Z,65.62
2018-12-01T03:59:36.785Z,66.17
2018-12-01T04:00:07.922Z,65.56
2018-12-01T04:00:39.105Z,64.94
2018-12-01T04:01:10.228Z,65.03
2018-12-01T04:01:41.337Z,65.70
2018-12-01T04:02:12.465Z,65.47
2018-12-01T04:02:43.583Z,65.86
2018-12-01T04:03:14.697Z,65.25
2018-12-01T04:03:45.827Z,64.58
2018-12-01T04:04:16.957Z,62.74
2018-12-01T04:04:48.121Z,62.26
2018-12-01T04:05:19.293Z,62.16
2018-12-01T04:05:50.424Z,61.49
2018-12-01T04:06:21.543Z,63.18
2018-12-01T04:06:52.664Z,60.34
2018-12-01T04:07:23.777Z,60.21
2018-12-01T04:07:54.895Z,60.17
2018-12-01T04:08:26.017Z,59.56
2018-12-01T04:08:57.194Z,60.27
2018-12-01T04:09:28.317Z,60.13
2018-12-01T04:09:59.426Z,61.06
2018-12-01T04:10:30.615Z,61.54
2018-12-01T04:11:01.783Z,61.45
2018-12-01T04:11:32.893Z,61.68
2018-12-01T04:12:04.004Z,61.69
2018-12-01T04:12:35.113Z,61.98
2018-12-01T04:13:06.232Z,62.61
2018-12-01T04:13:37.347Z,62.87
2018-12-01T04:14:08.508Z,62.85
2018-12-01T04:14:39.651Z,62.91
2018-12-01T04:15:10.810Z,62.79
2018-12-01T04:15:42.025Z,62.75
2018-12-01T04:16:13.180Z,63.08
2018-12-01T04:16:44.324Z,63.30
2018-12-01T04:17:15.452Z,63.18
2018-12-01T04:17:46.819Z,63.39
2018-12-01T04:18:17.993Z,63.01
2018-12-01T04:18:49.133Z,63.18
2018-12-01T04:19:20.288Z,62.86
2018-12-01T04:19:51.436Z,65.95
2018-12-01T04:20:22.539Z,65.08
2018-12-01T04:20:53.688Z,65.31
2018-12-01T04:21:24.807Z,64.86
2018-12-01T04:21:55.962Z,66.23
2018-12-01T04:22:27.095Z,65.81
2018-12-01T04:22:58.209Z,64.15
2018-12-01T04:23:29.324Z,63.95
2018-12-01T04:24:00.460Z,65.47
2018-12-01T04:24:31.616Z,64.70
2018-12-01T04:25:02.783Z,63.96
2018-12-01T04:25:33.913Z,62.58
2018-12-01T04:26:05.035Z,62.45
2018-12-01T04:26:36.191Z,63.32
2018-12-01T04:27:07.312Z,61.98
2018-12-01T04:27:38.491Z,61.91
2018-12-01T04:28:09.616Z,62.33
2018-12-01T04:28:40.742Z,64.00
2018-12-01T04:29:11.874Z,63.99
2018-12-01T04:29:42.989Z,63.73
2018-12-01T04:30:14.103Z,64.29
2018-12-01T04:30:45.229Z,63.77
2018-12-01T04:31:16.349Z,63.53
2018-12-01T04:31:47.465Z,61.91
2018-12-01T04:32:18.597Z,60.48
2018-12-01T04:32:49.749Z,60.29
2018-12-01T04:33:20.903Z,59.76
2018-12-01T04:33:52.073Z,59.44
2018-12-01T04:34:23.195Z,59.01
2018-12-01T04:34:54.308Z,59.19
2018-12-01T04:35:25.403Z,59.02
2018-12-01T04:35:56.529Z,59.11
2018-12-01T04:36:27.654Z,60.32
2018-12-01T04:36:58.781Z,61.01
2018-12-01T04:37:29.901Z,60.91
2018-12-01T04:38:01.061Z,61.44
2018-12-01T04:38:32.203Z,61.29
2018-12-01T04:39:03.307Z,60.62
2018-12-01T04:39:34.415Z,60.70
2018-12-01T04:40:05.538Z,60.29
2018-12-01T04:40:36.689Z,60.76
2018-12-01T04:41:07.826Z,60.62
2018-12-01T04:41:38.941Z,62.15
2018-12-01T04:42:10.114Z,62.74
2018-12-01T04:42:41.253Z,63.19
2018-12-01T04:43:12.407Z,62.95
2018-12-01T04:43:43.537Z,62.25
2018-12-01T04:44:14.657Z,63.71
2018-12-01T04:44:45.785Z,63.78
2018-12-01T04:45:16.914Z,64.06
2018-12-01T04:45:48.033Z,63.59
2018-12-01T04:46:19.151Z,65.08
2018-12-01T04:46:50.268Z,65.47
2018-12-01T04:47:21.381Z,65.24
2018-12-01T04:47:52.642Z,65.86
2018-12-01T04:48:23.802Z,65.43
2018-12-01T04:48:54.965Z,65.30
2018-12-01T04:49:26.093Z,65.36
2018-12-01T04:49:57.229Z,66.21
2018-12-01T04:50:28.368Z,66.43
2018-12-01T04:50:59.493Z,67.12
2018-12-01T04:51:30.613Z,67.18
2018-12-01T04:52:01.734Z,66.94
2018-12-01T04:52:32.872Z,67.80
2018-12-01T04:53:04.039Z,69.29
2018-12-01T04:53:35.159Z,69.14
2018-12-01T04:54:06.300Z,69.76
2018-12-01T04:54:37.452Z,70.28
2018-12-01T04:55:08.578Z,70.73
2018-12-01T04:55:39.688Z,70.77
2018-12-01T04:56:10.820Z,70.51
2018-12-01T04:56:41.933Z,71.06
2018-12-01T04:57:13.053Z,71.56
2018-12-01T04:57:44.220Z,71.58
2018-12-01T04:58:15.327Z,71.58
2018-12-01T04:58:46.448Z,71.66
2018-12-01T04:59:17.563Z,71.79
2018-12-01T04:59:48.688Z,72.02
2018-12-01T05:00:19.857Z,72.30
2018-12-01T05:00:50.978Z,72.47
2018-12-01T05:01:22.095Z,72.76
2018-12-01T05:01:53.228Z,72.91
2018-12-01T05:02:24.349Z,73.19
2018-12-01T05:02:55.504Z,73.42
2018-12-01T05:03:26.613Z,73.92
2018-12-01T05:03:57.723Z,74.42
2018-12-01T05:04:28.838Z,73.80
2018-12-01T05:04:59.952Z,74.53
2018-12-01T05:05:31.110Z,74.13
2018-12-01T05:06:02.233Z,74.00
2018-12-01T05:06:33.356Z,73.79
2018-12-01T05:07:04.468Z,73.98
2018-12-01T05:07:35.573Z,73.98
2018-12-01T05:08:06.700Z,74.61
2018-12-01T05:08:37.857Z,74.00
2018-12-01T05:09:08.981Z,74.07
2018-12-01T05:09:41.357Z,74.63
2018-12-01T05:10:12.478Z,75.55
2018-12-01T05:10:43.644Z,75.94
2018-12-01T05:11:14.760Z,74.92
2018-12-01T05:11:45.880Z,74.04
2018-12-01T05:12:16.992Z,73.95
2018-12-01T05:12:48.118Z,73.28
2018-12-01T05:13:19.283Z,73.56
2018-12-01T05:14:21.711Z,73.41
2018-12-01T05:14:52.821Z,73.89
2018-12-01T05:15:23.936Z,73.73
2018-12-01T05:15:55.044Z,74.48
2018-12-01T05:16:26.161Z,74.35
2018-12-01T05:16:57.275Z,74.58
2018-12-01T05:17:28.390Z,74.59
2018-12-01T05:18:00.790Z,74.63
2018-12-01T05:18:31.930Z,75.06
2018-12-01T05:19:03.049Z,74.53
2018-12-01T05:19:34.214Z,74.63
2018-12-01T05:20:05.327Z,75.54
2018-12-01T05:20:36.487Z,75.34
2018-12-01T05:21:07.608Z,75.71
2018-12-01T05:21:38.716Z,74.88
2018-12-01T05:22:09.898Z,75.45
2018-12-01T05:22:41.078Z,75.88
2018-12-01T05:23:12.204Z,75.26
2018-12-01T05:23:43.312Z,75.73
2018-12-01T05:24:14.437Z,75.51
2018-12-01T05:24:45.605Z,76.19
2018-12-01T05:25:16.729Z,75.97
2018-12-01T05:25:47.853Z,75.71
2018-12-01T05:26:18.960Z,76.44
2018-12-01T05:26:50.854Z,76.49
2018-12-01T05:27:21.965Z,76.25
2018-12-01T05:27:53.100Z,77.03
2018-12-01T05:28:24.220Z,76.36
2018-12-01T05:28:55.329Z,77.12
2018-12-01T05:29:26.444Z,76.73
2018-12-01T05:29:57.593Z,76.94
2018-12-01T05:30:28.717Z,76.54
2018-12-01T05:30:59.917Z,75.94
2018-12-01T05:31:31.049Z,76.29
2018-12-01T05:32:02.165Z,76.23
2018-12-01T05:32:33.283Z,76.47
2018-12-01T05:33:04.401Z,76.03
2018-12-01T05:33:35.518Z,75.86
2018-12-01T05:34:06.632Z,75.46
2018-12-01T05:34:37.758Z,75.88
2018-12-01T05:35:08.882Z,75.90
2018-12-01T05:35:40.248Z,76.21
2018-12-01T05:36:11.365Z,75.25
2018-12-01T05:36:42.484Z,75.64
2018-12-01T05:37:13.607Z,75.86
2018-12-01T05:37:44.717Z,75.46
2018-12-01T05:38:15.841Z,75.38
2018-12-01T05:38:46.951Z,75.01
2018-12-01T05:39:18.061Z,75.39
2018-12-01T05:39:49.178Z,75.24
2018-12-01T05:40:21.297Z,75.15
2018-12-01T05:40:52.444Z,74.64
2018-12-01T05:41:23.567Z,74.58
2018-12-01T05:41:54.684Z,75.25
2018-12-01T05:42:25.835Z,75.04
2018-12-01T05:42:56.977Z,74.97
2018-12-01T05:43:28.116Z,75.48
2018-12-01T05:43:59.233Z,75.22
2018-12-01T05:44:30.425Z,74.84
2018-12-01T05:45:02.270Z,75.15
2018-12-01T05:45:33.392Z,74.85
2018-12-01T05:46:04.558Z,74.44
2018-12-01T05:46:36.816Z,74.32
2018-12-01T05:47:06.832Z,74.25
2018-12-01T05:47:37.945Z,73.68
2018-12-01T05:48:09.081Z,73.91
2018-12-01T05:48:40.290Z,73.47
2018-12-01T05:49:11.414Z,73.74
2018-12-01T05:49:42.595Z,73.87
2018-12-01T05:50:13.735Z,73.78
2018-12-01T05:50:44.897Z,73.59
2018-12-01T05:51:16.985Z,74.06
2018-12-01T05:51:48.107Z,73.95
2018-12-01T05:52:19.277Z,73.74
2018-12-01T05:52:50.408Z,73.93
2018-12-01T05:53:21.535Z,74.39
2018-12-01T05:53:52.744Z,74.52
2018-12-01T05:54:23.882Z,74.44
2018-12-01T05:54:55.014Z,74.54
2018-12-01T05:55:26.136Z,74.73
2018-12-01T05:55:57.248Z,74.86
2018-12-01T05:56:28.363Z,75.25
2018-12-01T05:56:59.491Z,74.89
2018-12-01T05:57:30.619Z,75.46
2018-12-01T05:58:01.745Z,75.02
2018-12-01T05:58:32.876Z,74.95
2018-12-01T05:59:04.033Z,75.22
2018-12-01T05:59:35.187Z,75.59
2018-12-01T06:00:06.333Z,75.17
2018-12-01T06:00:37.453Z,75.10
2018-12-01T06:01:08.613Z,75.01
2018-12-01T06:01:39.733Z,74.80
2018-12-01T06:02:10.868Z,74.17
2018-12-01T06:02:41.984Z,74.35
2018-12-01T06:03:13.117Z,74.05
2018-12-01T06:03:44.238Z,74.26
2018-12-01T06:04:15.357Z,74.33
2018-12-01T06:04:46.469Z,74.67
2018-12-01T06:05:17.580Z,74.30
2018-12-01T06:05:48.696Z,73.93
2018-12-01T06:06:19.851Z,73.67
2018-12-01T06:06:50.962Z,74.45
2018-12-01T06:07:22.077Z,73.97
2018-12-01T06:07:53.208Z,74.28
2018-12-01T06:08:24.338Z,74.28
2018-12-01T06:08:55.460Z,73.81
2018-12-01T06:09:26.624Z,74.09
2018-12-01T06:09:57.742Z,73.55
2018-12-01T06:10:28.867Z,73.82
2018-12-01T06:10:59.979Z,73.70
2018-12-01T06:11:31.133Z,73.86
2018-12-01T06:12:02.241Z,73.42
2018-12-01T06:12:33.364Z,74.19
2018-12-01T06:13:04.527Z,74.18
2018-12-01T06:13:35.654Z,74.27
2018-12-01T06:14:06.772Z,73.92
2018-12-01T06:14:37.888Z,74.07
2018-12-01T06:15:09.036Z,73.95
2018-12-01T06:15:40.146Z,73.51
2018-12-01T06:16:11.378Z,73.35
2018-12-01T06:16:42.510Z,73.37
2018-12-01T06:17:13.637Z,73.66
2018-12-01T06:17:44.765Z,73.61
2018-12-01T06:18:15.884Z,73.39
2018-12-01T06:18:47.001Z,73.80
2018-12-01T06:19:18.117Z,74.02
2018-12-01T06:19:49.238Z,73.39
2018-12-01T06:20:20.340Z,73.94
2018-12-01T06:20:51.518Z,74.32
2018-12-01T06:21:22.641Z,73.95
2018-12-01T06:21:53.764Z,73.97
2018-12-01T06:22:24.883Z,74.13
2018-12-01T06:22:56.026Z,73.54
2018-12-01T06:23:27.152Z,73.85
2018-12-01T06:23:58.268Z,74.33
2018-12-01T06:24:29.383Z,74.49
2018-12-01T06:25:00.508Z,74.18
2018-12-01T06:25:31.678Z,74.55
2018-12-01T06:26:02.838Z,74.16
2018-12-01T06:26:33.952Z,74.16
2018-12-01T06:27:05.061Z,74.17
2018-12-01T06:27:36.177Z,74.11
2018-12-01T06:28:07.300Z,74.04
2018-12-01T06:28:39.468Z,73.55
2018-12-01T06:29:10.595Z,73.60
2018-12-01T06:29:41.715Z,73.53
2018-12-01T06:30:12.837Z,73.84
2018-12-01T06:30:43.985Z,73.94
2018-12-01T06:31:15.110Z,73.87
2018-12-01T06:31:46.266Z,73.51
2018-12-01T06:32:17.381Z,73.70
2018-12-01T06:32:48.488Z,73.45
2018-12-01T06:33:19.605Z,73.29
2018-12-01T06:33:50.728Z,73.48
2018-12-01T06:34:21.895Z,73.64
2018-12-01T06:34:53.009Z,73.77
2018-12-01T06:35:24.132Z,73.35
2018-12-01T06:35:55.244Z,74.04
2018-12-01T06:36:26.386Z,73.89
2018-12-01T06:36:57.502Z,74.72
2018-12-01T06:37:28.613Z,74.12
2018-12-01T06:37:59.774Z,73.37
2018-12-01T06:38:30.883Z,72.93
2018-12-01T06:39:01.985Z,72.67
2018-12-01T06:39:33.101Z,72.72
2018-12-01T06:40:04.217Z,72.65
2018-12-01T06:40:35.363Z,73.22
2018-12-01T06:41:06.472Z,72.12
2018-12-01T06:41:37.590Z,72.52